Time;durP1;ratioP1;P1;durP2;ratioP2;P2;SDS_P1;SDS_P2;PMS_P1;PMS_P2;Temp;Humidity;BMP_temperature;BMP_pressure;BME280_temperature;BME280_humidity;BME280_pressure;Samples;Min_cycle;Max_cycle;Signal;HPM_P1;HPM_P2
2023/05/21 00:00:38;;;;;;;8.23;6.37;;;;;;;24.28;45.67;99788.44;4260048;33;34076;-68
2023/05/21 00:03:12;;;;;;;8.45;6.65;;;;;;;24.28;45.66;99783.00;4260137;33;34065;-68
2023/05/21 00:05:40;;;;;;;7.72;6.20;;;;;;;24.28;45.66;99778.38;4260153;33;33781;-68
2023/05/21 00:08:08;;;;;;;8.25;5.95;;;;;;;24.29;45.67;99787.37;4260210;33;34384;-68
2023/05/21 00:10:35;;;;;;;9.10;7.00;;;;;;;24.29;45.64;99781.91;4260048;33;33992;-68
2023/05/21 00:13:03;;;;;;;10.00;6.30;;;;;;;24.29;45.65;99785.47;4258732;33;33663;-68
2023/05/21 00:15:31;;;;;;;10.80;6.22;;;;;;;24.28;45.66;99780.25;4259945;33;33900;-68
2023/05/21 00:17:58;;;;;;;8.20;6.25;;;;;;;24.29;45.64;99776.47;4260116;33;33233;-68
2023/05/21 00:20:28;;;;;;;14.13;6.70;;;;;;;24.28;45.67;99777.53;4260008;33;34363;-68
2023/05/21 00:22:55;;;;;;;7.72;6.28;;;;;;;24.29;45.67;99781.91;4258818;33;34019;-68
2023/05/21 00:25:23;;;;;;;7.40;5.55;;;;;;;24.30;45.62;99789.06;4259942;33;33474;-68
2023/05/21 00:27:50;;;;;;;9.82;6.55;;;;;;;24.30;45.63;99794.50;4259931;33;34308;-68
2023/05/21 00:30:18;;;;;;;9.02;6.62;;;;;;;24.29;45.62;99798.28;4259764;33;34068;-68
2023/05/21 00:32:46;;;;;;;7.78;6.15;;;;;;;24.28;45.64;99788.44;4259726;33;34034;-68
2023/05/21 00:35:13;;;;;;;8.18;5.85;;;;;;;24.28;45.66;99796.63;4260142;33;33942;-68
2023/05/21 00:37:41;;;;;;;8.18;5.95;;;;;;;24.29;45.67;99792.81;4258601;33;33824;-68
2023/05/21 00:40:10;;;;;;;8.85;6.05;;;;;;;24.27;45.67;99793.06;4260079;33;33985;-68
2023/05/21 00:42:38;;;;;;;7.15;5.87;;;;;;;24.27;45.67;99790.34;4258599;33;33900;-68
2023/05/21 00:45:06;;;;;;;7.95;5.90;;;;;;;24.28;45.67;99800.19;4259774;33;34677;-68
2023/05/21 00:47:34;;;;;;;7.70;5.95;;;;;;;24.26;45.70;99791.41;4258999;33;34174;-68
2023/05/21 00:50:02;;;;;;;7.87;6.00;;;;;;;24.28;45.70;99785.72;4259870;33;34020;-68
2023/05/21 00:52:30;;;;;;;9.30;5.80;;;;;;;24.28;45.71;99791.16;4259664;33;33761;-68
2023/05/21 00:54:57;;;;;;;6.50;5.15;;;;;;;24.27;45.72;99784.88;4259348;33;34219;-68
2023/05/21 00:57:25;;;;;;;7.12;5.75;;;;;;;24.28;45.73;99785.72;4258275;33;34274;-67
2023/05/21 00:59:53;;;;;;;8.40;6.28;;;;;;;24.27;45.72;99779.44;4258422;33;33561;-68
2023/05/21 01:02:22;;;;;;;7.57;6.00;;;;;;;24.27;45.77;99774.00;4259415;33;33692;-68
2023/05/21 01:04:53;;;;;;;7.30;5.95;;;;;;;24.29;45.79;99779.19;4259591;33;34391;-68
2023/05/21 01:07:21;;;;;;;8.25;5.55;;;;;;;24.29;45.89;99781.91;4259457;33;33241;-68
2023/05/21 01:09:48;;;;;;;8.30;5.82;;;;;;;24.29;45.88;99774.56;4259202;33;34673;-66
2023/05/21 01:12:16;;;;;;;8.77;6.05;;;;;;;24.30;45.89;99778.16;4259666;33;34652;-68
2023/05/21 01:14:44;;;;;;;7.70;5.90;;;;;;;24.29;45.89;99769.12;4259715;33;33944;-68
2023/05/21 01:17:12;;;;;;;6.97;5.43;;;;;;;24.28;45.88;99772.91;4259328;33;32834;-68
2023/05/21 01:19:40;;;;;;;8.25;5.85;;;;;;;24.29;45.88;99773.75;4258216;33;33935;-67
2023/05/21 01:22:08;;;;;;;8.55;6.22;;;;;;;24.29;45.87;99771.00;4258084;33;34004;-68
2023/05/21 01:24:35;;;;;;;9.23;5.97;;;;;;;24.29;45.84;99766.38;4257964;33;33576;-68
2023/05/21 01:27:06;;;;;;;7.03;5.65;;;;;;;24.29;45.82;99765.56;4258082;33;33525;-68
2023/05/21 01:29:34;;;;;;;7.18;5.82;;;;;;;24.29;45.84;99769.12;4259211;33;34672;-68
2023/05/21 01:32:08;;;;;;;6.75;5.90;;;;;;;24.28;45.81;99759.28;4259252;33;34889;-68
2023/05/21 01:34:59;;;;;;;7.43;5.97;;;;;;;24.28;45.83;99762.00;4257958;33;34512;-68
2023/05/21 01:37:37;;;;;;;11.77;6.22;;;;;;;24.30;45.80;99759.06;4257971;33;33298;-69
2023/05/21 01:40:21;;;;;;;8.20;6.00;;;;;;;24.29;45.85;99754.66;4257975;33;33868;-69
2023/05/21 01:42:49;;;;;;;8.00;5.62;;;;;;;24.28;45.96;99755.72;4259313;33;34339;-68
2023/05/21 01:45:17;;;;;;;7.18;5.80;;;;;;;24.27;45.96;99765.81;4257712;33;34204;-69
2023/05/21 01:47:47;;;;;;;10.60;6.45;;;;;;;24.27;45.97;99762.25;4258856;33;34366;-69
2023/05/21 01:50:15;;;;;;;10.90;6.20;;;;;;;24.28;45.96;99766.63;4257755;33;33515;-68
2023/05/21 01:53:02;;;;;;;7.55;5.95;;;;;;;24.29;45.92;99760.94;4257802;33;33818;-69
2023/05/21 01:55:30;;;;;;;7.55;5.93;;;;;;;24.30;45.91;99759.06;4258759;33;33473;-68
2023/05/21 01:57:58;;;;;;;9.25;5.75;;;;;;;24.29;45.89;99771.00;4258933;33;33119;-68
2023/05/21 02:00:29;;;;;;;8.05;5.87;;;;;;;24.29;45.89;99762.84;4259611;33;34202;-69
2023/05/21 02:02:57;;;;;;;7.57;5.97;;;;;;;24.29;45.89;99769.12;4260875;33;34204;-68
2023/05/21 02:05:25;;;;;;;7.62;5.65;;;;;;;24.31;45.89;99752.53;4260758;33;34032;-69
2023/05/21 02:07:53;;;;;;;7.82;5.28;;;;;;;24.30;45.87;99757.16;4260837;33;33114;-68
2023/05/21 02:10:21;;;;;;;8.20;5.95;;;;;;;24.30;45.86;99773.53;4261009;33;33895;-68
2023/05/21 02:12:50;;;;;;;7.72;5.78;;;;;;;24.31;45.83;99768.91;4260732;33;34052;-68
2023/05/21 02:15:17;;;;;;;7.62;5.53;;;;;;;24.30;45.85;99764.53;4260767;33;34109;-68
2023/05/21 02:17:45;;;;;;;6.95;5.43;;;;;;;24.30;45.82;99772.69;4260926;33;34354;-68
2023/05/21 02:20:14;;;;;;;7.70;5.80;;;;;;;24.30;45.79;99761.78;4260816;33;33880;-68
2023/05/21 02:22:45;;;;;;;8.93;5.75;;;;;;;24.31;45.78;99768.91;4260769;33;34773;-68
2023/05/21 02:25:17;;;;;;;7.30;5.22;;;;;;;24.30;45.79;99761.78;4260854;33;34592;-68
2023/05/21 02:27:45;;;;;;;7.57;5.20;;;;;;;24.30;45.79;99761.78;4260587;33;33311;-69
2023/05/21 02:30:14;;;;;;;7.72;5.90;;;;;;;24.30;45.76;99756.34;4259441;33;33973;-68
2023/05/21 02:32:42;;;;;;;8.18;6.22;;;;;;;24.29;45.77;99755.47;4260682;33;34757;-68
2023/05/21 02:35:11;;;;;;;6.75;5.20;;;;;;;24.30;45.76;99759.06;4260555;33;33891;-68
2023/05/21 02:37:39;;;;;;;7.10;5.18;;;;;;;24.29;45.76;99757.37;4260720;33;33467;-68
2023/05/21 02:40:08;;;;;;;8.88;5.72;;;;;;;24.30;45.74;99759.91;4247691;33;34688;-68
2023/05/21 02:42:38;;;;;;;7.28;5.57;;;;;;;24.29;45.75;99752.75;4260843;33;34757;-68
2023/05/21 02:45:06;;;;;;;;;;;;;;;24.30;45.74;99765.34;4261178;33;33674;-68
2023/05/21 02:47:34;;;;;;;7.32;5.35;;;;;;;24.39;45.57;99768.59;4260787;33;33999;-68
2023/05/21 02:50:02;;;;;;;6.97;5.25;;;;;;;24.31;45.71;99761.56;4260947;33;33742;-69
2023/05/21 02:52:30;;;;;;;7.35;5.55;;;;;;;24.29;45.76;99762.84;4260808;33;34593;-69
2023/05/21 02:54:57;;;;;;;6.78;5.03;;;;;;;24.29;45.79;99768.28;4260650;33;33980;-68
2023/05/21 02:57:25;;;;;;;6.95;5.28;;;;;;;24.28;45.78;99763.91;4260463;33;34336;-68
2023/05/21 02:59:53;;;;;;;7.40;5.20;;;;;;;24.27;45.79;99757.63;4260458;33;33729;-68
2023/05/21 03:02:21;;;;;;;7.28;5.47;;;;;;;24.28;45.76;99764.72;4260517;33;34768;-68
2023/05/21 03:04:49;;;;;;;6.72;5.53;;;;;;;24.28;45.76;99767.47;4260851;33;33659;-68
2023/05/21 03:07:18;;;;;;;7.40;5.87;;;;;;;24.28;45.74;99761.19;4260507;33;34311;-69
2023/05/21 03:09:46;;;;;;;9.13;5.07;;;;;;;24.28;45.73;99767.47;4259119;33;33988;-68
2023/05/21 03:12:14;;;;;;;8.80;5.53;;;;;;;24.29;45.67;99766.38;4259066;33;34820;-68
2023/05/21 03:14:42;;;;;;;7.78;5.45;;;;;;;24.29;45.71;99765.56;4260550;33;34684;-68
2023/05/21 03:17:12;;;;;;;7.00;5.50;;;;;;;24.29;45.65;99766.38;4260295;33;33349;-68
2023/05/21 03:19:40;;;;;;;8.63;5.80;;;;;;;24.28;45.73;99755.72;4260511;33;34715;-68
2023/05/21 03:22:08;;;;;;;8.30;5.72;;;;;;;24.29;45.75;99762.84;4259421;33;34038;-68
2023/05/21 03:24:37;;;;;;;8.50;5.50;;;;;;;24.29;45.75;99760.09;4260275;33;34163;-68
2023/05/21 03:27:05;;;;;;;10.48;5.97;;;;;;;24.27;45.79;99760.34;4260315;33;33744;-69
2023/05/21 03:29:33;;;;;;;7.22;5.05;;;;;;;24.29;45.75;99760.09;4260402;33;33670;-68
2023/05/21 03:32:01;;;;;;;7.45;5.50;;;;;;;24.29;45.76;99751.94;4260556;33;35001;-68
2023/05/21 03:34:29;;;;;;;6.70;5.35;;;;;;;24.28;45.78;99747.53;4260646;33;33734;-68
2023/05/21 03:36:58;;;;;;;9.27;5.50;;;;;;;24.27;45.80;99752.16;4260447;33;32930;-68
2023/05/21 03:39:26;;;;;;;7.22;5.55;;;;;;;24.28;45.77;99756.56;4260441;33;34565;-68
2023/05/21 03:41:54;;;;;;;8.57;5.22;;;;;;;24.28;45.76;99759.28;4259401;33;35015;-68
2023/05/21 03:44:22;;;;;;;7.72;5.05;;;;;;;24.28;45.77;99758.44;4260133;33;34629;-68
2023/05/21 03:46:50;;;;;;;7.10;5.07;;;;;;;24.28;45.74;99762.00;4260632;33;34119;-67
2023/05/21 03:49:19;;;;;;;8.15;5.60;;;;;;;24.29;45.74;99760.09;4260193;33;34759;-68
2023/05/21 03:51:47;;;;;;;6.62;5.28;;;;;;;24.27;45.75;99759.53;4260240;33;34721;-68
2023/05/21 03:54:15;;;;;;;6.97;5.45;;;;;;;24.28;45.72;99758.44;4260461;33;34769;-68
2023/05/21 03:56:42;;;;;;;7.25;5.30;;;;;;;24.27;45.73;99760.34;4260340;33;34243;-69
2023/05/21 03:59:11;;;;;;;6.85;5.20;;;;;;;24.27;45.73;99759.53;4260024;33;33654;-68
2023/05/21 04:01:38;;;;;;;6.87;5.05;;;;;;;24.27;45.74;99760.34;4260052;33;35023;-68
2023/05/21 04:04:07;;;;;;;7.78;5.37;;;;;;;24.26;45.73;99757.87;4260383;33;34693;-69
2023/05/21 04:06:34;;;;;;;6.47;5.07;;;;;;;24.26;45.73;99761.44;4258921;33;34189;-68
2023/05/21 04:09:03;;;;;;;6.93;5.32;;;;;;;24.27;45.72;99762.25;4260112;33;34011;-67
2023/05/21 04:11:31;;;;;;;8.05;5.60;;;;;;;24.26;45.71;99766.03;4260143;33;33549;-68
2023/05/21 04:13:58;;;;;;;7.40;5.07;;;;;;;24.27;45.70;99767.72;4259839;33;33780;-68
2023/05/21 04:16:26;;;;;;;7.07;5.22;;;;;;;24.26;45.70;99764.16;4260074;33;33162;-68
2023/05/21 04:18:54;;;;;;;8.45;5.47;;;;;;;24.26;45.75;99769.59;4260179;33;33711;-68
2023/05/21 04:21:22;;;;;;;6.72;5.43;;;;;;;24.27;45.85;99770.44;4260001;33;35027;-68
2023/05/21 04:23:49;;;;;;;6.53;5.10;;;;;;;24.26;45.82;99769.59;4257315;33;33993;-66
2023/05/21 04:26:18;;;;;;;7.22;5.10;;;;;;;24.28;45.81;99770.19;4273430;33;33062;-66
2023/05/21 04:28:46;;;;;;;7.68;5.50;;;;;;;24.28;45.82;99775.62;4271694;33;33686;-66
2023/05/21 04:31:14;;;;;;;8.27;5.15;;;;;;;24.28;45.80;99772.91;4259294;33;33919;-66
2023/05/21 04:33:44;;;;;;;6.53;4.82;;;;;;;24.29;45.81;99776.47;4259247;33;34604;-66
2023/05/21 04:36:12;;;;;;;6.65;5.00;;;;;;;24.28;45.81;99772.09;4259481;33;33875;-65
2023/05/21 04:38:41;;;;;;;6.97;5.05;;;;;;;24.29;45.80;99771.00;4258766;33;34106;-65
2023/05/21 04:41:09;;;;;;;7.60;5.25;;;;;;;24.30;45.76;99778.16;4256416;33;33501;-65
2023/05/21 04:43:37;;;;;;;7.87;5.15;;;;;;;24.32;45.72;99776.84;4232330;33;32889;-66
2023/05/21 04:46:06;;;;;;;8.23;4.82;;;;;;;24.33;45.68;99773.03;4244931;33;34214;-66
2023/05/21 04:48:34;;;;;;;8.15;5.50;;;;;;;24.32;45.71;99770.56;4256113;33;33480;-66
2023/05/21 04:51:04;;;;;;;6.87;4.93;;;;;;;24.33;45.72;99769.50;4258579;33;33788;-66
2023/05/21 04:53:32;;;;;;;7.10;4.85;;;;;;;24.31;45.74;99769.72;4259367;33;34001;-66
2023/05/21 04:56:01;;;;;;;7.43;4.93;;;;;;;24.32;45.76;99763.22;4258724;33;33391;-66
2023/05/21 04:58:31;;;;;;;7.87;4.80;;;;;;;24.32;45.77;99771.38;4259125;33;34060;-66
2023/05/21 05:01:01;;;;;;;9.88;5.70;;;;;;;24.33;45.73;99774.94;4259139;33;33659;-66
2023/05/21 05:03:30;;;;;;;8.25;4.90;;;;;;;24.33;45.75;99770.31;4258873;33;33798;-67
2023/05/21 05:05:58;;;;;;;7.90;5.28;;;;;;;24.30;45.75;99765.34;4259436;33;34121;-66
2023/05/21 05:08:26;;;;;;;6.47;4.70;;;;;;;24.32;45.74;99774.13;4259213;33;33845;-67
2023/05/21 05:10:54;;;;;;;6.45;4.87;;;;;;;24.32;45.74;99768.66;4258576;33;34050;-67
2023/05/21 05:13:21;;;;;;;7.43;5.10;;;;;;;24.33;45.73;99777.66;4258486;33;33819;-67
2023/05/21 05:15:49;;;;;;;6.82;5.10;;;;;;;24.34;45.72;99773.88;4259003;33;33231;-67
2023/05/21 05:18:20;;;;;;;6.28;4.80;;;;;;;24.34;45.71;99773.88;4258484;33;34618;-67
2023/05/21 05:20:48;;;;;;;6.85;4.90;;;;;;;24.33;45.72;99764.87;4258730;33;34816;-67
2023/05/21 05:23:16;;;;;;;7.30;5.37;;;;;;;24.34;45.73;99760.25;4258717;33;33877;-66
2023/05/21 05:25:44;;;;;;;6.53;4.90;;;;;;;24.33;45.73;99759.41;4259188;33;33469;-67
2023/05/21 05:28:11;;;;;;;8.55;5.18;;;;;;;24.34;45.71;99762.97;4258713;33;33982;-68
2023/05/21 05:30:39;;;;;;;6.20;4.60;;;;;;;24.33;45.73;99764.87;4258599;33;34951;-66
2023/05/21 05:33:07;;;;;;;7.75;5.40;;;;;;;24.34;45.71;99766.56;4259000;33;33699;-68
2023/05/21 05:35:35;;;;;;;6.87;4.87;;;;;;;24.34;45.71;99765.69;4260562;33;34200;-67
2023/05/21 05:38:03;;;;;;;6.45;4.53;;;;;;;24.34;45.70;99766.56;4260369;33;34502;-66
2023/05/21 05:40:32;;;;;;;6.60;5.12;;;;;;;24.35;45.74;99764.66;4259064;33;33592;-66
2023/05/21 05:42:59;;;;;;;7.05;4.80;;;;;;;24.34;45.75;99766.56;4260443;33;33595;-67
2023/05/21 05:45:27;;;;;;;7.93;5.37;;;;;;;24.34;45.75;99765.69;4260061;33;33491;-67
2023/05/21 05:47:55;;;;;;;8.02;5.03;;;;;;;24.34;45.75;99772.00;4260571;33;34861;-67
2023/05/21 05:50:23;;;;;;;8.07;5.15;;;;;;;24.35;45.71;99775.56;4259476;33;33928;-67
2023/05/21 05:52:51;;;;;;;7.32;4.70;;;;;;;24.34;45.69;99766.56;4260105;33;34118;-66
2023/05/21 05:55:20;;;;;;;7.68;5.62;;;;;;;24.35;45.67;99767.38;4260418;33;33797;-67
2023/05/21 05:57:48;;;;;;;7.33;5.23;;;;;;;24.35;45.67;99767.38;4259295;33;33465;-68
2023/05/21 06:00:16;;;;;;;7.00;4.95;;;;;;;24.36;45.64;99758.97;4260546;33;33893;-67
2023/05/21 06:02:44;;;;;;;6.85;4.87;;;;;;;24.34;45.67;99752.91;4260763;33;34169;-67
2023/05/21 06:05:11;;;;;;;7.10;4.75;;;;;;;24.35;45.66;99761.94;4260535;33;33441;-68
2023/05/21 06:07:40;;;;;;;7.25;5.03;;;;;;;24.36;45.65;99758.13;4260430;33;34069;-68
2023/05/21 06:10:08;;;;;;;8.32;5.00;;;;;;;24.35;45.65;99756.47;4260260;33;33971;-68
2023/05/21 06:12:35;;;;;;;6.68;4.82;;;;;;;24.34;45.66;99755.66;4260117;33;33972;-67
2023/05/21 06:15:04;;;;;;;8.43;4.68;;;;;;;24.35;45.63;99757.31;4260483;33;32988;-67
2023/05/21 06:17:33;;;;;;;;;;;;;;;24.34;45.65;99758.38;4259651;33;34032;-67
2023/05/21 06:20:01;;;;;;;7.00;4.95;;;;;;;24.45;45.42;99755.94;4260476;33;34367;-67
2023/05/21 06:22:30;;;;;;;7.62;4.78;;;;;;;24.38;45.53;99759.56;4260018;33;33961;-67
2023/05/21 06:24:57;;;;;;;7.05;5.22;;;;;;;24.35;45.59;99756.47;4260777;33;33568;-66
2023/05/21 06:27:25;;;;;;;6.80;4.53;;;;;;;24.34;45.64;99760.25;4260763;33;33857;-66
2023/05/21 06:29:52;;;;;;;8.25;4.93;;;;;;;24.35;45.66;99767.38;4260552;33;33878;-68
2023/05/21 06:32:21;;;;;;;6.10;4.40;;;;;;;24.35;45.65;99756.47;4260412;33;33995;-67
2023/05/21 06:34:49;;;;;;;6.60;4.97;;;;;;;24.35;45.62;99756.47;4260554;33;33423;-67
2023/05/21 06:37:19;;;;;;;7.25;5.20;;;;;;;24.36;45.62;99755.41;4247674;33;34865;-67
2023/05/21 06:39:46;;;;;;;7.32;4.87;;;;;;;24.35;45.62;99753.75;4260066;33;33842;-67
2023/05/21 06:42:14;;;;;;;6.45;4.75;;;;;;;24.37;45.61;99751.63;4258845;33;34028;-66
2023/05/21 06:44:43;;;;;;;7.82;4.72;;;;;;;24.36;45.60;99749.94;4260302;33;33610;-66
2023/05/21 06:47:10;;;;;;;6.80;5.25;;;;;;;24.37;45.57;99743.44;4259564;33;34746;-66
2023/05/21 06:49:38;;;;;;;8.18;4.72;;;;;;;24.37;45.54;99746.19;4260398;33;33752;-66
2023/05/21 06:52:06;;;;;;;7.30;4.97;;;;;;;24.37;45.52;99738.81;4260291;33;33592;-67
2023/05/21 06:54:35;;;;;;;6.75;4.93;;;;;;;24.37;45.51;99741.56;4260396;33;34237;-66
2023/05/21 06:57:02;;;;;;;6.12;4.43;;;;;;;24.39;45.42;99741.34;4247162;33;33343;-67
2023/05/21 06:59:30;;;;;;;6.65;4.95;;;;;;;24.40;45.39;99745.72;4260380;33;33996;-69
2023/05/21 07:01:58;;;;;;;10.43;5.45;;;;;;;24.39;45.36;99741.34;4260334;33;33949;-67
2023/05/21 07:04:27;;;;;;;8.95;5.43;;;;;;;24.40;44.69;99734.81;4260196;33;33480;-68
2023/05/21 07:06:55;;;;;;;6.65;5.25;;;;;;;24.40;44.65;99741.09;4260230;33;33994;-69
2023/05/21 07:09:23;;;;;;;9.20;5.53;;;;;;;24.39;44.59;99736.72;4260628;33;33959;-66
2023/05/21 07:11:52;;;;;;;8.98;5.30;;;;;;;24.39;44.55;99735.88;4260491;33;33951;-67
2023/05/21 07:14:20;;;;;;;9.23;5.70;;;;;;;24.39;44.59;99741.34;4260468;33;34371;-67
2023/05/21 07:16:50;;;;;;;8.07;5.65;;;;;;;24.39;44.60;99739.44;4260411;33;34243;-68
2023/05/21 07:19:17;;;;;;;8.55;5.60;;;;;;;24.39;44.57;99741.34;4260457;33;34863;-67
2023/05/21 07:21:45;;;;;;;6.68;5.12;;;;;;;24.40;44.44;99737.53;4260451;33;34565;-67
2023/05/21 07:24:13;;;;;;;14.93;5.93;;;;;;;24.42;43.92;99743.56;4260298;33;33443;-68
2023/05/21 07:26:41;;;;;;;6.95;5.50;;;;;;;24.42;43.40;99733.50;4260438;33;33725;-68
2023/05/21 07:29:10;;;;;;;8.75;5.85;;;;;;;24.43;43.20;99740.63;4259561;33;34128;-68
2023/05/21 07:31:37;;;;;;;7.53;5.30;;;;;;;24.43;43.08;99731.59;4260217;33;34953;-68
2023/05/21 07:34:05;;;;;;;7.97;5.15;;;;;;;24.43;42.61;99737.06;4260470;33;33100;-68
2023/05/21 07:36:33;;;;;;;8.50;5.10;;;;;;;24.44;42.38;99738.72;4260568;33;34494;-69
2023/05/21 07:39:00;;;;;;;7.18;5.15;;;;;;;24.43;42.36;99732.44;4260539;33;34270;-68
2023/05/21 07:41:28;;;;;;;8.23;5.37;;;;;;;24.45;42.24;99725.94;4260114;33;33639;-68
2023/05/21 07:43:57;;;;;;;8.32;5.22;;;;;;;24.46;42.35;99730.31;4260588;33;33220;-68
2023/05/21 07:46:25;;;;;;;8.52;5.43;;;;;;;24.46;42.35;99731.12;4260262;33;34834;-68
2023/05/21 07:48:53;;;;;;;7.25;5.43;;;;;;;24.47;41.99;99727.34;4260418;33;34466;-69
2023/05/21 07:51:20;;;;;;;8.65;5.32;;;;;;;24.49;42.11;99724.41;4259367;33;33848;-68
2023/05/21 07:53:48;;;;;;;8.23;6.05;;;;;;;24.49;42.08;99727.94;4235556;33;32974;-69
2023/05/21 07:56:16;;;;;;;8.25;5.47;;;;;;;24.51;41.85;99722.25;4257276;33;33493;-66
2023/05/21 07:58:44;;;;;;;9.50;5.70;;;;;;;24.51;41.93;99722.25;4267466;33;33912;-66
2023/05/21 08:01:13;;;;;;;9.95;5.87;;;;;;;24.52;41.88;99719.28;4263484;33;34530;-66
2023/05/21 08:03:40;;;;;;;9.13;5.75;;;;;;;24.53;41.97;99707.31;4258138;33;33558;-65
2023/05/21 08:06:08;;;;;;;8.80;5.43;;;;;;;24.55;42.18;99712.53;4258373;33;33845;-66
2023/05/21 08:08:36;;;;;;;8.88;5.62;;;;;;;24.56;42.37;99725.09;4259465;33;34816;-66
2023/05/21 08:11:04;;;;;;;7.85;5.03;;;;;;;24.58;42.50;99725.72;4259463;33;34768;-65
2023/05/21 08:13:33;;;;;;;10.07;5.60;;;;;;;24.58;42.66;99728.44;4259910;33;34211;-67
2023/05/21 08:16:02;;;;;;;8.93;5.43;;;;;;;24.59;42.72;99721.91;4259562;33;33636;-67
2023/05/21 08:18:30;;;;;;;9.23;5.60;;;;;;;24.58;42.84;99731.16;4259770;33;34042;-67
2023/05/21 08:20:57;;;;;;;8.43;5.45;;;;;;;24.60;42.86;99726.28;4259523;33;33957;-67
2023/05/21 08:23:26;;;;;;;7.60;5.85;;;;;;;24.58;42.87;99720.25;4259439;33;33580;-66
2023/05/21 08:25:53;;;;;;;10.43;5.95;;;;;;;24.58;42.93;99721.09;4259685;33;33125;-67
2023/05/21 08:28:22;;;;;;;10.77;5.70;;;;;;;24.59;43.04;99724.63;4259879;33;34908;-67
2023/05/21 08:30:50;;;;;;;10.57;5.93;;;;;;;24.59;43.05;99719.19;4258541;33;34522;-66
2023/05/21 08:33:19;;;;;;;11.75;5.72;;;;;;;24.59;43.21;99720.00;4259798;33;33289;-66
2023/05/21 08:35:47;;;;;;;7.63;5.47;;;;;;;24.60;43.16;99731.75;4259540;33;33927;-66
2023/05/21 08:38:16;;;;;;;8.75;5.25;;;;;;;24.61;43.14;99730.66;4258676;33;34391;-67
2023/05/21 08:40:45;;;;;;;10.30;5.60;;;;;;;24.60;43.24;99731.75;4259286;33;33845;-66
2023/05/21 08:43:15;;;;;;;9.98;5.65;;;;;;;24.61;43.30;99725.22;4257861;33;34183;-67
2023/05/21 08:45:50;;;;;;;11.10;5.53;;;;;;;24.61;43.34;99723.31;4259141;33;34097;-66
2023/05/21 08:48:18;;;;;;;12.20;5.82;;;;;;;24.63;43.36;99720.38;4245823;33;34086;-67
2023/05/21 08:50:46;;;;;;;10.60;6.00;;;;;;;24.62;43.45;99724.16;4246368;33;33627;-67
2023/05/21 08:53:15;;;;;;;9.38;5.85;;;;;;;24.64;43.46;99719.28;4243668;33;33956;-66
2023/05/21 08:55:56;;;;;;;8.95;5.87;;;;;;;24.62;43.40;99725.00;4232901;33;34004;-67
2023/05/21 08:58:24;;;;;;;10.07;5.30;;;;;;;24.64;43.47;99722.84;4245024;33;34649;-66
2023/05/21 09:00:53;;;;;;;9.02;5.50;;;;;;;24.63;43.45;99728.56;4245324;33;33667;-67
2023/05/21 09:03:21;;;;;;;12.35;5.18;;;;;;;24.64;43.50;99722.03;4232172;33;34160;-67
2023/05/21 09:05:50;;;;;;;10.45;5.25;;;;;;;24.64;43.53;99719.28;4231906;33;33532;-68
2023/05/21 09:08:26;;;;;;;8.20;5.60;;;;;;;24.65;43.53;99719.06;4220890;33;33955;-67
2023/05/21 09:10:54;;;;;;;9.68;5.70;;;;;;;24.66;43.59;99728.06;4245849;33;34206;-67
2023/05/21 09:13:22;;;;;;;8.63;6.12;;;;;;;24.66;43.58;99720.72;4246494;33;34117;-67
2023/05/21 09:15:50;;;;;;;15.38;6.00;;;;;;;24.65;43.58;99719.06;4233968;33;34540;-67
2023/05/21 09:18:18;;;;;;;9.15;5.93;;;;;;;24.65;43.60;99720.97;4246573;33;33552;-67
2023/05/21 09:20:46;;;;;;;7.90;6.07;;;;;;;24.66;43.60;99717.16;4245757;33;32884;-67
2023/05/21 09:23:16;;;;;;;6.45;5.30;;;;;;;24.67;43.61;99714.22;4246705;33;32314;-67
2023/05/21 09:25:45;;;;;;;9.45;5.78;;;;;;;24.65;43.63;99715.50;4246792;33;34625;-67
2023/05/21 09:28:14;;;;;;;10.18;5.93;;;;;;;24.67;43.59;99710.66;4246765;33;33969;-67
2023/05/21 09:30:45;;;;;;;7.50;5.60;;;;;;;24.65;43.60;99713.59;4246371;33;34800;-66
2023/05/21 09:33:28;;;;;;;9.45;5.70;;;;;;;24.67;43.58;99719.66;4245634;33;34283;-67
2023/05/21 09:35:55;;;;;;;10.50;5.50;;;;;;;24.69;43.57;99720.25;4234063;33;34324;-67
2023/05/21 09:38:25;;;;;;;8.73;6.17;;;;;;;24.68;43.54;99723.22;4246886;33;34743;-67
2023/05/21 09:40:56;;;;;;;8.50;5.93;;;;;;;24.68;43.53;99715.88;4246517;33;33799;-67
2023/05/21 09:43:24;;;;;;;8.05;5.72;;;;;;;24.68;43.58;99718.59;4246583;33;34156;-67
2023/05/21 09:45:54;;;;;;;8.17;5.23;;;;;;;24.69;43.53;99727.59;4246649;33;33459;-67
2023/05/21 09:48:36;;;;;;;8.75;6.12;;;;;;;24.69;43.54;99717.50;4234038;33;34730;-66
2023/05/21 09:51:13;;;;;;;9.32;6.32;;;;;;;24.74;43.50;99724.16;4247272;33;33813;-66
2023/05/21 09:53:59;;;;;;;8.70;6.18;;;;;;;24.73;43.52;99715.16;4260576;33;34213;-67
2023/05/21 09:56:30;;;;;;;7.50;6.30;;;;;;;24.72;43.52;99716.22;4247252;33;32766;-64
2023/05/21 09:59:00;;;;;;;9.40;5.50;;;;;;;24.71;43.51;99709.09;4259458;33;33976;-68
2023/05/21 10:01:28;;;;;;;8.85;5.90;;;;;;;24.72;43.56;99704.47;4260396;33;34610;-65
2023/05/21 10:03:56;;;;;;;7.87;5.32;;;;;;;24.73;43.53;99714.31;4247635;33;33219;-67
2023/05/21 10:06:28;;;;;;;8.68;6.12;;;;;;;24.72;43.54;99704.47;4260485;33;33940;-67
2023/05/21 10:08:58;;;;;;;7.62;5.68;;;;;;;24.74;43.47;99705.06;4260370;33;33549;-66
2023/05/21 10:11:26;;;;;;;8.80;6.05;;;;;;;24.75;43.44;99710.28;4247425;33;32533;-66
2023/05/21 10:14:03;;;;;;;8.48;5.80;;;;;;;24.76;43.43;99703.78;4260385;33;33414;-67
2023/05/21 10:16:32;;;;;;;7.80;5.72;;;;;;;24.78;43.42;99708.97;4259131;33;34065;-65
2023/05/21 10:19:00;;;;;;;10.05;6.22;;;;;;;24.76;43.44;99705.66;4259255;33;34509;-65
2023/05/21 10:21:27;;;;;;;11.40;5.68;;;;;;;24.77;43.46;99707.31;4246638;33;33598;-66
2023/05/21 10:23:55;;;;;;;7.47;5.55;;;;;;;24.77;43.47;99694.50;4258989;33;32916;-66
2023/05/21 10:26:23;;;;;;;8.70;5.35;;;;;;;24.78;43.39;99696.16;4259118;33;33983;-67
2023/05/21 10:28:51;;;;;;;7.25;5.40;;;;;;;24.78;43.40;99696.16;4260290;33;34797;-66
2023/05/21 10:31:18;;;;;;;8.07;5.87;;;;;;;24.79;43.36;99686.06;4260352;33;34642;-66
2023/05/21 10:33:46;;;;;;;9.50;5.47;;;;;;;24.80;43.26;99696.75;4259087;33;34110;-66
2023/05/21 10:36:20;;;;;;;7.22;5.35;;;;;;;24.81;43.22;99694.88;4247332;33;33970;-67
2023/05/21 10:38:48;;;;;;;8.43;5.53;;;;;;;24.79;43.26;99692.38;4259294;33;33462;-66
2023/05/21 10:41:17;;;;;;;9.30;5.45;;;;;;;24.80;43.21;99685.81;4260589;33;33566;-68
2023/05/21 10:44:09;;;;;;;6.75;5.22;;;;;;;24.82;43.12;99691.91;4247730;33;34252;-68
2023/05/21 10:46:39;;;;;;;9.50;5.57;;;;;;;24.80;43.19;99691.28;4260373;33;33948;-68
2023/05/21 10:49:21;;;;;;;7.03;5.97;;;;;;;24.79;43.24;99686.91;4260684;33;34012;-68
2023/05/21 10:52:17;;;;;;;8.80;5.30;;;;;;;24.79;43.19;99683.34;4260427;33;34826;-69
2023/05/21 10:54:54;;;;;;;7.95;5.20;;;;;;;24.80;43.09;99682.28;4260839;33;34122;-68
2023/05/21 10:58:12;;;;;;;8.75;5.35;;;;;;;24.79;43.01;99681.44;4259277;33;33956;-68
2023/05/21 11:00:40;;;;;;;7.82;5.53;;;;;;;24.80;42.94;99683.09;4244013;33;34669;-68
2023/05/21 11:03:10;;;;;;;8.80;5.30;;;;;;;24.76;42.98;99687.41;4246458;33;33739;-68
2023/05/21 11:05:50;;;;;;;7.22;5.12;;;;;;;24.76;43.02;99681.94;4247357;33;33123;-68
2023/05/21 11:08:24;;;;;;;8.60;5.37;;;;;;;24.76;42.99;99672.91;4259052;33;33513;-68
2023/05/21 11:10:56;;;;;;;10.00;5.32;;;;;;;24.76;42.99;99667.44;4260344;33;34884;-69
2023/05/21 11:13:25;;;;;;;6.78;4.68;;;;;;;24.76;43.03;99670.16;4260421;33;33950;-68
2023/05/21 11:15:56;;;;;;;8.38;6.25;;;;;;;24.76;43.01;99670.16;4259113;33;34340;-68
2023/05/21 11:18:41;;;;;;;9.75;5.95;;;;;;;24.75;43.06;99671.25;4260345;33;34602;-69
2023/05/21 11:21:29;;;;;;;7.22;5.35;;;;;;;24.74;43.08;99677.78;4260312;33;33903;-68
2023/05/21 11:24:01;;;;;;;7.12;4.85;;;;;;;24.76;43.09;99679.22;4259248;33;33764;-68
2023/05/21 11:26:51;;;;;;;9.90;5.35;;;;;;;24.73;43.12;99674.22;4260179;33;33044;-68
2023/05/21 11:29:18;;;;;;;7.93;5.30;;;;;;;24.73;43.13;99668.75;4260556;33;33962;-68
2023/05/21 11:31:47;;;;;;;8.00;5.25;;;;;;;24.75;43.11;99673.97;4259814;33;34820;-68
2023/05/21 11:34:20;;;;;;;8.38;5.75;;;;;;;24.73;43.17;99670.66;4260270;33;33657;-69
2023/05/21 11:36:48;;;;;;;8.88;5.80;;;;;;;24.72;43.20;99664.38;4260261;33;33911;-68
2023/05/21 11:39:20;;;;;;;8.48;4.93;;;;;;;24.73;43.20;99665.22;4260157;33;33878;-68
2023/05/21 11:41:59;;;;;;;10.95;5.62;;;;;;;24.73;43.22;99667.94;4260185;33;34027;-68
2023/05/21 11:44:39;;;;;;;7.93;5.25;;;;;;;24.73;43.21;99667.94;4260086;33;34163;-69